sensor_id;sensor_type;location;lat;lon;timestamp;pressure;altitude;pressure_sealevel;temperature;humidity
11329;BME280;5719;42.714;23.732;2023-01-28T00:01:14;93686.72;;;2.42;92.98
11329;BME280;5719;42.714;23.732;2023-01-28T00:03:41;93682.19;;;2.32;93.53
11329;BME280;5719;42.714;23.732;2023-01-28T00:06:11;93682.41;;;2.12;94.17
11329;BME280;5719;42.714;23.732;2023-01-28T00:08:39;93690.56;;;2.03;94.59
11329;BME280;5719;42.714;23.732;2023-01-28T00:11:08;93699.78;;;2.21;95.58
11329;BME280;5719;42.714;23.732;2023-01-28T00:13:36;93693.03;;;2.20;96.25
11329;BME280;5719;42.714;23.732;2023-01-28T00:16:05;93699.97;;;2.18;95.72
11329;BME280;5719;42.714;23.732;2023-01-28T00:18:33;93703.41;;;2.17;96.27
11329;BME280;5719;42.714;23.732;2023-01-28T00:21:03;93712.22;;;2.27;96.02
11329;BME280;5719;42.714;23.732;2023-01-28T00:23:33;93708.84;;;2.26;94.51
11329;BME280;5719;42.714;23.732;2023-01-28T00:26:02;93697.81;;;2.10;95.39
11329;BME280;5719;42.714;23.732;2023-01-28T00:28:30;93709.16;;;2.20;95.61
11329;BME280;5719;42.714;23.732;2023-01-28T00:30:57;93709.50;;;2.30;94.93
11329;BME280;5719;42.714;23.732;2023-01-28T00:33:24;93712.44;;;2.22;95.50
11329;BME280;5719;42.714;23.732;2023-01-28T00:35:57;93720.53;;;2.15;95.83
11329;BME280;5719;42.714;23.732;2023-01-28T00:38:25;93721.66;;;2.09;95.30
11329;BME280;5719;42.714;23.732;2023-01-28T00:40:53;93719.91;;;2.10;96.08
11329;BME280;5719;42.714;23.732;2023-01-28T00:43:20;93726.25;;;2.03;96.06
11329;BME280;5719;42.714;23.732;2023-01-28T00:45:47;93717.69;;;2.04;96.18
11329;BME280;5719;42.714;23.732;2023-01-28T00:48:14;93717.81;;;2.01;95.59
11329;BME280;5719;42.714;23.732;2023-01-28T00:50:41;93724.41;;;2.05;96.45
11329;BME280;5719;42.714;23.732;2023-01-28T00:53:08;93728.69;;;2.04;96.67
11329;BME280;5719;42.714;23.732;2023-01-28T00:55:35;93727.44;;;1.63;97.63
11329;BME280;5719;42.714;23.732;2023-01-28T00:58:03;93716.09;;;1.68;98.45
11329;BME280;5719;42.714;23.732;2023-01-28T01:00:30;93735.06;;;1.63;99.22
11329;BME280;5719;42.714;23.732;2023-01-28T01:02:58;93735.59;;;1.69;99.75
11329;BME280;5719;42.714;23.732;2023-01-28T01:05:25;93726.59;;;1.62;99.11
11329;BME280;5719;42.714;23.732;2023-01-28T01:07:54;93739.31;;;1.79;99.71
11329;BME280;5719;42.714;23.732;2023-01-28T01:10:21;93723.19;;;1.79;99.34
11329;BME280;5719;42.714;23.732;2023-01-28T01:12:48;93740.19;;;1.95;99.25
11329;BME280;5719;42.714;23.732;2023-01-28T01:15:17;93733.13;;;2.01;98.84
11329;BME280;5719;42.714;23.732;2023-01-28T01:17:46;93730.16;;;1.92;98.62
11329;BME280;5719;42.714;23.732;2023-01-28T01:20:17;93726.69;;;1.93;99.45
11329;BME280;5719;42.714;23.732;2023-01-28T01:22:44;93717.66;;;1.88;99.26
11329;BME280;5719;42.714;23.732;2023-01-28T01:25:13;93741.56;;;1.68;100.00
11329;BME280;5719;42.714;23.732;2023-01-28T01:27:41;93722.25;;;1.47;100.00
11329;BME280;5719;42.714;23.732;2023-01-28T01:30:09;93718.91;;;1.64;100.00
11329;BME280;5719;42.714;23.732;2023-01-28T01:32:37;93716.56;;;1.59;100.00
11329;BME280;5719;42.714;23.732;2023-01-28T01:35:05;93736.31;;;1.71;100.00
11329;BME280;5719;42.714;23.732;2023-01-28T01:37:33;93746.50;;;1.71;100.00
11329;BME280;5719;42.714;23.732;2023-01-28T01:40:00;93740.97;;;1.80;100.00
11329;BME280;5719;42.714;23.732;2023-01-28T01:42:29;93693.03;;;1.54;100.00
11329;BME280;5719;42.714;23.732;2023-01-28T01:44:59;93743.78;;;1.91;100.00
11329;BME280;5719;42.714;23.732;2023-01-28T01:47:31;93748.28;;;2.04;100.00
11329;BME280;5719;42.714;23.732;2023-01-28T01:50:07;93722.94;;;2.01;100.00
11329;BME280;5719;42.714;23.732;2023-01-28T01:52:38;93744.34;;;2.14;100.00
11329;BME280;5719;42.714;23.732;2023-01-28T01:55:11;93755.66;;;2.25;100.00
11329;BME280;5719;42.714;23.732;2023-01-28T01:57:40;93759.94;;;2.25;100.00
11329;BME280;5719;42.714;23.732;2023-01-28T02:00:09;93751.38;;;2.26;99.85
11329;BME280;5719;42.714;23.732;2023-01-28T02:02:39;93750.28;;;2.30;99.44
11329;BME280;5719;42.714;23.732;2023-01-28T02:05:09;93761.69;;;2.40;100.00
11329;BME280;5719;42.714;23.732;2023-01-28T02:07:37;93761.59;;;2.41;99.85
11329;BME280;5719;42.714;23.732;2023-01-28T02:10:06;93756.44;;;2.43;100.00
11329;BME280;5719;42.714;23.732;2023-01-28T02:12:34;93753.78;;;2.44;99.72
11329;BME280;5719;42.714;23.732;2023-01-28T02:15:04;93739.63;;;2.39;99.19
11329;BME280;5719;42.714;23.732;2023-01-28T02:17:32;93744.56;;;2.42;99.26
11329;BME280;5719;42.714;23.732;2023-01-28T02:20:00;93758.97;;;2.43;99.60
11329;BME280;5719;42.714;23.732;2023-01-28T02:22:40;93755.44;;;2.45;99.79
11329;BME280;5719;42.714;23.732;2023-01-28T02:25:23;93757.75;;;2.50;98.95
11329;BME280;5719;42.714;23.732;2023-01-28T02:28:16;93757.59;;;2.53;98.96
11329;BME280;5719;42.714;23.732;2023-01-28T02:30:51;93761.03;;;2.52;98.67
11329;BME280;5719;42.714;23.732;2023-01-28T02:33:26;93766.13;;;2.52;97.81
11329;BME280;5719;42.714;23.732;2023-01-28T02:35:55;93762.69;;;2.53;97.16
11329;BME280;5719;42.714;23.732;2023-01-28T02:38:32;93763.59;;;2.52;97.77
11329;BME280;5719;42.714;23.732;2023-01-28T02:41:04;93767.78;;;2.53;97.73
11329;BME280;5719;42.714;23.732;2023-01-28T02:43:37;93762.63;;;2.55;97.46
11329;BME280;5719;42.714;23.732;2023-01-28T02:46:14;93762.53;;;2.56;97.54
11329;BME280;5719;42.714;23.732;2023-01-28T02:49:01;93765.16;;;2.55;97.74
11329;BME280;5719;42.714;23.732;2023-01-28T02:51:38;93763.97;;;2.44;99.18
11329;BME280;5719;42.714;23.732;2023-01-28T02:54:11;93765.31;;;2.52;98.22
11329;BME280;5719;42.714;23.732;2023-01-28T02:56:44;93755.38;;;2.47;98.30
11329;BME280;5719;42.714;23.732;2023-01-28T02:59:18;93765.06;;;2.56;98.05
11329;BME280;5719;42.714;23.732;2023-01-28T03:02:07;93754.66;;;1.95;97.88
11329;BME280;5719;42.714;23.732;2023-01-28T03:04:40;93764.53;;;2.01;99.08
11329;BME280;5719;42.714;23.732;2023-01-28T03:07:09;93765.06;;;2.08;98.37
11329;BME280;5719;42.714;23.732;2023-01-28T03:09:39;93771.63;;;2.12;98.12
11329;BME280;5719;42.714;23.732;2023-01-28T03:12:09;93770.94;;;1.92;98.13
11329;BME280;5719;42.714;23.732;2023-01-28T03:14:58;93767.84;;;2.03;98.33
11329;BME280;5719;42.714;23.732;2023-01-28T03:17:45;93768.50;;;2.07;98.99
11329;BME280;5719;42.714;23.732;2023-01-28T03:20:36;93772.94;;;1.86;98.61
11329;BME280;5719;42.714;23.732;2023-01-28T03:23:26;93776.47;;;1.83;100.00
11329;BME280;5719;42.714;23.732;2023-01-28T03:26:13;93769.28;;;1.91;100.00
11329;BME280;5719;42.714;23.732;2023-01-28T03:29:04;93773.16;;;1.98;100.00
11329;BME280;5719;42.714;23.732;2023-01-28T03:31:51;93774.88;;;1.98;100.00
11329;BME280;5719;42.714;23.732;2023-01-28T03:34:37;93773.53;;;2.08;100.00
11329;BME280;5719;42.714;23.732;2023-01-28T03:37:21;93779.28;;;2.12;100.00
11329;BME280;5719;42.714;23.732;2023-01-28T03:39:48;93778.22;;;2.16;100.00
11329;BME280;5719;42.714;23.732;2023-01-28T03:42:15;93720.91;;;1.40;100.00
11329;BME280;5719;42.714;23.732;2023-01-28T03:44:43;93772.88;;;1.87;100.00
11329;BME280;5719;42.714;23.732;2023-01-28T03:47:20;93770.94;;;1.92;100.00
11329;BME280;5719;42.714;23.732;2023-01-28T03:49:48;93771.84;;;1.91;100.00
11329;BME280;5719;42.714;23.732;2023-01-28T03:52:16;93773.84;;;1.68;100.00
11329;BME280;5719;42.714;23.732;2023-01-28T03:54:44;93778.34;;;1.28;100.00
11329;BME280;5719;42.714;23.732;2023-01-28T03:57:13;93783.53;;;1.44;100.00
11329;BME280;5719;42.714;23.732;2023-01-28T03:59:40;93792.56;;;1.49;100.00
11329;BME280;5719;42.714;23.732;2023-01-28T04:02:08;93788.63;;;1.61;100.00
11329;BME280;5719;42.714;23.732;2023-01-28T04:04:38;93770.63;;;1.47;100.00
11329;BME280;5719;42.714;23.732;2023-01-28T04:07:06;93771.41;;;1.49;100.00
11329;BME280;5719;42.714;23.732;2023-01-28T04:09:33;93793.13;;;1.56;100.00
11329;BME280;5719;42.714;23.732;2023-01-28T04:12:01;93790.69;;;1.36;100.00
11329;BME280;5719;42.714;23.732;2023-01-28T04:14:28;93746.22;;;1.26;100.00
11329;BME280;5719;42.714;23.732;2023-01-28T04:16:55;93786.75;;;1.65;100.00
11329;BME280;5719;42.714;23.732;2023-01-28T04:19:22;93796.13;;;1.81;100.00
11329;BME280;5719;42.714;23.732;2023-01-28T04:21:51;93806.47;;;1.95;100.00
11329;BME280;5719;42.714;23.732;2023-01-28T04:24:19;93799.38;;;2.01;100.00
11329;BME280;5719;42.714;23.732;2023-01-28T04:26:46;93794.16;;;1.86;100.00
11329;BME280;5719;42.714;23.732;2023-01-28T04:29:13;93802.94;;;1.81;100.00
11329;BME280;5719;42.714;23.732;2023-01-28T04:31:40;93786.38;;;1.72;100.00
11329;BME280;5719;42.714;23.732;2023-01-28T04:34:07;93785.50;;;1.56;100.00
11329;BME280;5719;42.714;23.732;2023-01-28T04:36:35;93808.69;;;1.50;100.00
11329;BME280;5719;42.714;23.732;2023-01-28T04:39:03;93809.16;;;1.58;100.00
11329;BME280;5719;42.714;23.732;2023-01-28T04:41:30;93801.97;;;1.49;100.00
11329;BME280;5719;42.714;23.732;2023-01-28T04:43:57;93816.47;;;1.64;100.00
11329;BME280;5719;42.714;23.732;2023-01-28T04:46:24;93823.91;;;1.52;100.00
11329;BME280;5719;42.714;23.732;2023-01-28T04:48:51;93821.41;;;1.50;100.00
11329;BME280;5719;42.714;23.732;2023-01-28T04:51:17;93818.88;;;1.50;100.00
11329;BME280;5719;42.714;23.732;2023-01-28T04:53:44;93827.59;;;1.63;100.00
11329;BME280;5719;42.714;23.732;2023-01-28T04:56:12;93826.56;;;1.67;100.00
11329;BME280;5719;42.714;23.732;2023-01-28T04:58:39;93835.00;;;1.68;100.00
11329;BME280;5719;42.714;23.732;2023-01-28T05:01:06;93836.13;;;1.45;100.00
11329;BME280;5719;42.714;23.732;2023-01-28T05:03:33;93837.22;;;1.39;100.00
11329;BME280;5719;42.714;23.732;2023-01-28T05:06:00;93823.91;;;1.52;100.00
11329;BME280;5719;42.714;23.732;2023-01-28T05:08:27;93824.38;;;1.60;100.00
11329;BME280;5719;42.714;23.732;2023-01-28T05:10:54;93842.56;;;1.69;100.00
11329;BME280;5719;42.714;23.732;2023-01-28T05:13:22;93842.38;;;1.74;100.00
11329;BME280;5719;42.714;23.732;2023-01-28T05:15:50;93830.97;;;1.64;100.00
11329;BME280;5719;42.714;23.732;2023-01-28T05:18:18;93828.94;;;1.70;100.00
11329;BME280;5719;42.714;23.732;2023-01-28T05:20:46;93845.22;;;1.85;100.00
11329;BME280;5719;42.714;23.732;2023-01-28T05:23:13;93850.84;;;1.91;100.00
11329;BME280;5719;42.714;23.732;2023-01-28T05:25:40;93847.41;;;1.92;100.00
11329;BME280;5719;42.714;23.732;2023-01-28T05:28:07;93858.94;;;2.00;100.00
11329;BME280;5719;42.714;23.732;2023-01-28T05:30:37;93862.59;;;1.94;100.00
11329;BME280;5719;42.714;23.732;2023-01-28T05:33:04;93861.03;;;1.91;100.00
11329;BME280;5719;42.714;23.732;2023-01-28T05:35:30;93812.00;;;1.52;100.00
11329;BME280;5719;42.714;23.732;2023-01-28T05:37:57;93862.00;;;1.89;100.00
11329;BME280;5719;42.714;23.732;2023-01-28T05:40:25;93866.13;;;1.91;100.00
11329;BME280;5719;42.714;23.732;2023-01-28T05:42:51;93859.88;;;1.97;100.00
11329;BME280;5719;42.714;23.732;2023-01-28T05:45:19;93869.03;;;2.01;100.00
11329;BME280;5719;42.714;23.732;2023-01-28T05:47:48;93856.25;;;1.85;100.00
11329;BME280;5719;42.714;23.732;2023-01-28T05:50:15;93881.94;;;1.98;100.00
11329;BME280;5719;42.714;23.732;2023-01-28T05:52:42;93867.91;;;1.89;100.00
11329;BME280;5719;42.714;23.732;2023-01-28T05:55:09;93882.41;;;2.06;100.00
11329;BME280;5719;42.714;23.732;2023-01-28T05:57:36;93881.25;;;2.12;100.00
11329;BME280;5719;42.714;23.732;2023-01-28T06:00:05;93882.03;;;2.14;100.00
11329;BME280;5719;42.714;23.732;2023-01-28T06:02:32;93890.72;;;2.10;100.00
11329;BME280;5719;42.714;23.732;2023-01-28T06:05:00;93890.88;;;2.07;100.00
11329;BME280;5719;42.714;23.732;2023-01-28T06:07:27;93895.34;;;1.84;100.00
11329;BME280;5719;42.714;23.732;2023-01-28T06:09:54;93896.72;;;1.91;100.00
11329;BME280;5719;42.714;23.732;2023-01-28T06:12:21;93889.72;;;1.78;100.00
11329;BME280;5719;42.714;23.732;2023-01-28T06:14:48;93911.16;;;1.91;100.00
11329;BME280;5719;42.714;23.732;2023-01-28T06:17:14;93901.44;;;1.82;100.00
11329;BME280;5719;42.714;23.732;2023-01-28T06:19:41;93904.66;;;1.85;100.00
11329;BME280;5719;42.714;23.732;2023-01-28T06:22:10;93910.78;;;1.45;100.00
11329;BME280;5719;42.714;23.732;2023-01-28T06:24:37;93921.31;;;1.57;100.00
11329;BME280;5719;42.714;23.732;2023-01-28T06:27:04;93909.56;;;1.71;100.00
11329;BME280;5719;42.714;23.732;2023-01-28T06:29:31;93913.50;;;1.78;100.00
11329;BME280;5719;42.714;23.732;2023-01-28T06:31:58;93918.75;;;1.92;100.00
11329;BME280;5719;42.714;23.732;2023-01-28T06:34:25;93915.75;;;2.02;100.00
11329;BME280;5719;42.714;23.732;2023-01-28T06:36:52;93913.72;;;2.08;100.00
11329;BME280;5719;42.714;23.732;2023-01-28T06:39:20;93918.47;;;2.16;100.00
11329;BME280;5719;42.714;23.732;2023-01-28T06:41:47;93919.97;;;2.20;100.00
11329;BME280;5719;42.714;23.732;2023-01-28T06:44:14;93924.47;;;2.15;100.00
11329;BME280;5719;42.714;23.732;2023-01-28T06:46:41;93919.28;;;1.99;100.00
11329;BME280;5719;42.714;23.732;2023-01-28T06:49:08;93927.91;;;2.14;100.00
11329;BME280;5719;42.714;23.732;2023-01-28T06:51:35;93928.50;;;2.19;100.00
11329;BME280;5719;42.714;23.732;2023-01-28T06:54:02;93934.69;;;2.15;100.00
11329;BME280;5719;42.714;23.732;2023-01-28T06:56:30;93927.75;;;2.17;100.00
11329;BME280;5719;42.714;23.732;2023-01-28T06:58:57;93946.53;;;2.33;100.00
11329;BME280;5719;42.714;23.732;2023-01-28T07:01:24;93951.94;;;2.44;100.00
11329;BME280;5719;42.714;23.732;2023-01-28T07:03:51;93949.91;;;2.51;100.00
11329;BME280;5719;42.714;23.732;2023-01-28T07:06:18;93955.13;;;2.65;100.00
11329;BME280;5719;42.714;23.732;2023-01-28T07:08:45;93957.81;;;2.79;100.00
11329;BME280;5719;42.714;23.732;2023-01-28T07:11:13;93968.22;;;2.91;100.00
11329;BME280;5719;42.714;23.732;2023-01-28T07:13:41;93961.00;;;3.00;100.00
11329;BME280;5719;42.714;23.732;2023-01-28T07:16:09;93972.38;;;3.10;100.00
11329;BME280;5719;42.714;23.732;2023-01-28T07:18:36;93973.31;;;3.09;100.00
11329;BME280;5719;42.714;23.732;2023-01-28T07:21:03;93975.09;;;3.07;99.39
11329;BME280;5719;42.714;23.732;2023-01-28T07:23:30;93979.81;;;3.14;98.33
11329;BME280;5719;42.714;23.732;2023-01-28T07:26:00;93986.09;;;3.09;97.70
11329;BME280;5719;42.714;23.732;2023-01-28T07:28:27;93994.88;;;3.03;96.61
11329;BME280;5719;42.714;23.732;2023-01-28T07:30:56;93948.09;;;2.53;97.06
11329;BME280;5719;42.714;23.732;2023-01-28T07:33:23;93987.47;;;2.30;99.81
11329;BME280;5719;42.714;23.732;2023-01-28T07:35:50;93993.63;;;2.43;99.97
11329;BME280;5719;42.714;23.732;2023-01-28T07:38:16;94001.97;;;2.29;98.53
11329;BME280;5719;42.714;23.732;2023-01-28T07:40:43;94011.53;;;2.24;99.18
11329;BME280;5719;42.714;23.732;2023-01-28T07:43:10;93988.75;;;2.21;100.00
11329;BME280;5719;42.714;23.732;2023-01-28T07:45:37;94009.31;;;2.35;99.66
11329;BME280;5719;42.714;23.732;2023-01-28T07:48:08;94001.56;;;2.20;98.17
11329;BME280;5719;42.714;23.732;2023-01-28T07:50:36;94014.94;;;2.42;98.54
11329;BME280;5719;42.714;23.732;2023-01-28T07:53:05;94016.59;;;2.43;97.73
11329;BME280;5719;42.714;23.732;2023-01-28T07:55:33;93998.72;;;2.26;97.43
11329;BME280;5719;42.714;23.732;2023-01-28T07:58:02;94020.75;;;2.27;96.16
11329;BME280;5719;42.714;23.732;2023-01-28T08:00:31;94018.84;;;2.32;95.56
11329;BME280;5719;42.714;23.732;2023-01-28T08:03:00;94018.03;;;2.13;97.92
11329;BME280;5719;42.714;23.732;2023-01-28T08:05:36;94024.16;;;2.09;97.08
11329;BME280;5719;42.714;23.732;2023-01-28T08:08:06;94021.63;;;2.09;97.08
11329;BME280;5719;42.714;23.732;2023-01-28T08:10:33;94020.81;;;1.89;97.09
11329;BME280;5719;42.714;23.732;2023-01-28T08:13:00;93995.16;;;1.75;95.66
11329;BME280;5719;42.714;23.732;2023-01-28T08:15:27;94005.75;;;1.85;97.88
11329;BME280;5719;42.714;23.732;2023-01-28T08:17:55;94007.63;;;1.81;96.87
11329;BME280;5719;42.714;23.732;2023-01-28T08:20:24;94017.13;;;1.96;98.99
11329;BME280;5719;42.714;23.732;2023-01-28T08:23:03;94030.56;;;2.17;97.69
11329;BME280;5719;42.714;23.732;2023-01-28T08:25:30;94036.38;;;2.38;98.21
11329;BME280;5719;42.714;23.732;2023-01-28T08:27:57;94036.13;;;2.61;97.53
11329;BME280;5719;42.714;23.732;2023-01-28T08:30:24;94011.59;;;2.59;94.42
11329;BME280;5719;42.714;23.732;2023-01-28T08:32:51;94036.19;;;2.77;94.41
11329;BME280;5719;42.714;23.732;2023-01-28T08:35:20;94036.19;;;2.60;94.16
11329;BME280;5719;42.714;23.732;2023-01-28T08:37:47;94033.78;;;2.57;97.55
11329;BME280;5719;42.714;23.732;2023-01-28T08:40:16;94046.84;;;2.85;99.82
11329;BME280;5719;42.714;23.732;2023-01-28T08:42:46;94045.31;;;3.15;97.77
11329;BME280;5719;42.714;23.732;2023-01-28T08:45:14;94048.28;;;3.40;98.21
11329;BME280;5719;42.714;23.732;2023-01-28T08:47:47;94033.22;;;3.19;95.86
11329;BME280;5719;42.714;23.732;2023-01-28T08:50:15;94042.84;;;3.14;98.37
11329;BME280;5719;42.714;23.732;2023-01-28T08:52:42;94050.50;;;3.31;97.68
11329;BME280;5719;42.714;23.732;2023-01-28T08:55:09;94049.00;;;3.42;96.91
11329;BME280;5719;42.714;23.732;2023-01-28T08:57:37;94044.72;;;3.27;95.74
11329;BME280;5719;42.714;23.732;2023-01-28T09:00:06;94049.91;;;3.09;98.03
11329;BME280;5719;42.714;23.732;2023-01-28T09:02:36;94053.50;;;2.53;100.00
11329;BME280;5719;42.714;23.732;2023-01-28T09:05:04;94033.03;;;3.87;100.00
11329;BME280;5719;42.714;23.732;2023-01-28T09:07:33;94049.16;;;3.72;100.00
11329;BME280;5719;42.714;23.732;2023-01-28T09:10:01;94055.22;;;3.54;100.00
11329;BME280;5719;42.714;23.732;2023-01-28T09:12:28;94032.22;;;3.54;100.00
11329;BME280;5719;42.714;23.732;2023-01-28T09:14:56;94055.31;;;3.85;100.00
11329;BME280;5719;42.714;23.732;2023-01-28T09:17:24;94049.91;;;3.90;99.32
11329;BME280;5719;42.714;23.732;2023-01-28T09:19:53;94054.47;;;4.16;100.00
11329;BME280;5719;42.714;23.732;2023-01-28T09:22:20;94058.78;;;4.00;96.84
11329;BME280;5719;42.714;23.732;2023-01-28T09:24:47;94058.59;;;3.87;96.35
11329;BME280;5719;42.714;23.732;2023-01-28T09:27:14;94041.63;;;3.54;97.14
11329;BME280;5719;42.714;23.732;2023-01-28T09:29:41;94047.66;;;3.68;95.98
11329;BME280;5719;42.714;23.732;2023-01-28T09:32:09;94049.44;;;3.83;95.93
11329;BME280;5719;42.714;23.732;2023-01-28T09:34:36;94054.53;;;3.83;93.63
11329;BME280;5719;42.714;23.732;2023-01-28T09:37:03;94055.41;;;3.51;92.94
11329;BME280;5719;42.714;23.732;2023-01-28T09:39:30;94050.84;;;3.40;93.14
11329;BME280;5719;42.714;23.732;2023-01-28T09:42:10;94058.34;;;2.93;93.85
11329;BME280;5719;42.714;23.732;2023-01-28T09:44:54;94040.09;;;2.67;98.43
11329;BME280;5719;42.714;23.732;2023-01-28T09:47:29;94046.38;;;2.60;98.74
11329;BME280;5719;42.714;23.732;2023-01-28T09:50:00;94053.59;;;3.03;98.74
11329;BME280;5719;42.714;23.732;2023-01-28T09:52:32;94042.13;;;2.94;93.22
11329;BME280;5719;42.714;23.732;2023-01-28T09:55:02;94042.03;;;2.79;97.18
11329;BME280;5719;42.714;23.732;2023-01-28T09:57:36;94044.66;;;3.12;96.48
11329;BME280;5719;42.714;23.732;2023-01-28T10:00:11;94056.53;;;2.95;95.46
11329;BME280;5719;42.714;23.732;2023-01-28T10:02:50;94053.81;;;2.81;98.21
11329;BME280;5719;42.714;23.732;2023-01-28T10:05:26;94036.84;;;2.46;97.77
11329;BME280;5719;42.714;23.732;2023-01-28T10:08:03;94044.97;;;2.71;98.28
11329;BME280;5719;42.714;23.732;2023-01-28T10:10:38;94052.91;;;3.00;94.99
11329;BME280;5719;42.714;23.732;2023-01-28T10:13:19;94049.88;;;3.26;95.66
11329;BME280;5719;42.714;23.732;2023-01-28T10:16:04;94054.53;;;3.35;95.20
11329;BME280;5719;42.714;23.732;2023-01-28T10:18:35;94051.94;;;3.52;93.78
11329;BME280;5719;42.714;23.732;2023-01-28T10:21:11;94052.94;;;3.65;92.92
11329;BME280;5719;42.714;23.732;2023-01-28T10:23:47;94051.63;;;3.58;90.54
11329;BME280;5719;42.714;23.732;2023-01-28T10:26:21;94047.94;;;3.31;92.69
11329;BME280;5719;42.714;23.732;2023-01-28T10:28:53;94054.66;;;3.65;92.74
11329;BME280;5719;42.714;23.732;2023-01-28T10:31:22;94046.69;;;3.86;91.54
11329;BME280;5719;42.714;23.732;2023-01-28T10:33:51;94055.72;;;4.09;89.92
11329;BME280;5719;42.714;23.732;2023-01-28T10:36:18;94049.84;;;4.23;89.85
11329;BME280;5719;42.714;23.732;2023-01-28T10:38:45;94050.69;;;4.23;88.78
11329;BME280;5719;42.714;23.732;2023-01-28T10:41:16;94011.69;;;4.04;89.00
11329;BME280;5719;42.714;23.732;2023-01-28T10:43:46;94043.28;;;4.19;88.75
11329;BME280;5719;42.714;23.732;2023-01-28T10:46:18;94036.97;;;4.24;88.67
11329;BME280;5719;42.714;23.732;2023-01-28T10:48:54;94054.72;;;4.43;88.16
11329;BME280;5719;42.714;23.732;2023-01-28T10:51:33;94052.50;;;4.37;86.51
11329;BME280;5719;42.714;23.732;2023-01-28T10:54:00;94044.84;;;4.21;86.09
11329;BME280;5719;42.714;23.732;2023-01-28T10:56:29;94039.72;;;3.09;92.88
11329;BME280;5719;42.714;23.732;2023-01-28T10:59:00;94052.63;;;3.06;96.99
11329;BME280;5719;42.714;23.732;2023-01-28T11:01:41;94055.00;;;3.26;97.09
11329;BME280;5719;42.714;23.732;2023-01-28T11:04:17;94043.38;;;3.53;95.12
11329;BME280;5719;42.714;23.732;2023-01-28T11:06:56;94052.13;;;3.32;95.54
11329;BME280;5719;42.714;23.732;2023-01-28T11:09:24;94039.66;;;3.26;96.17
11329;BME280;5719;42.714;23.732;2023-01-28T11:11:52;94048.63;;;3.50;96.10
11329;BME280;5719;42.714;23.732;2023-01-28T11:14:20;94045.44;;;3.62;96.85
11329;BME280;5719;42.714;23.732;2023-01-28T11:16:48;94050.81;;;3.73;95.58
11329;BME280;5719;42.714;23.732;2023-01-28T11:19:18;94048.13;;;3.92;95.14
11329;BME280;5719;42.714;23.732;2023-01-28T11:21:51;94048.88;;;4.10;94.61
11329;BME280;5719;42.714;23.732;2023-01-28T11:24:20;94040.38;;;4.25;93.60
11329;BME280;5719;42.714;23.732;2023-01-28T11:26:50;94054.63;;;3.97;93.32
11329;BME280;5719;42.714;23.732;2023-01-28T11:29:22;94042.22;;;3.59;96.71
11329;BME280;5719;42.714;23.732;2023-01-28T11:31:50;94047.38;;;3.41;98.74
11329;BME280;5719;42.714;23.732;2023-01-28T11:34:19;94048.44;;;3.70;99.08
11329;BME280;5719;42.714;23.732;2023-01-28T11:36:52;94030.97;;;3.78;97.81
11329;BME280;5719;42.714;23.732;2023-01-28T11:39:21;94047.22;;;3.93;97.73
11329;BME280;5719;42.714;23.732;2023-01-28T11:41:50;94043.28;;;4.19;97.29
11329;BME280;5719;42.714;23.732;2023-01-28T11:44:21;94032.81;;;4.37;95.88
11329;BME280;5719;42.714;23.732;2023-01-28T11:47:11;94035.38;;;4.53;95.23
11329;BME280;5719;42.714;23.732;2023-01-28T11:50:07;94022.97;;;4.61;94.26
11329;BME280;5719;42.714;23.732;2023-01-28T11:52:45;94037.34;;;4.64;93.03
11329;BME280;5719;42.714;23.732;2023-01-28T11:55:27;94036.34;;;4.66;92.76
11329;BME280;5719;42.714;23.732;2023-01-28T11:58:08;94027.97;;;4.78;92.65
11329;BME280;5719;42.714;23.732;2023-01-28T12:00:44;94031.28;;;4.80;92.52
11329;BME280;5719;42.714;23.732;2023-01-28T12:03:25;94032.00;;;4.82;92.93
11329;BME280;5719;42.714;23.732;2023-01-28T12:06:19;94032.47;;;4.59;92.49
11329;BME280;5719;42.714;23.732;2023-01-28T12:08:55;94030.00;;;4.58;92.49
11329;BME280;5719;42.714;23.732;2023-01-28T12:11:29;94023.22;;;4.57;92.58
11329;BME280;5719;42.714;23.732;2023-01-28T12:14:25;94041.94;;;4.73;92.04
11329;BME280;5719;42.714;23.732;2023-01-28T12:17:07;94039.41;;;4.57;92.77
11329;BME280;5719;42.714;23.732;2023-01-28T12:19:47;94032.31;;;4.62;93.21
11329;BME280;5719;42.714;23.732;2023-01-28T12:25:41;93965.88;;;4.15;93.84
11329;BME280;5719;42.714;23.732;2023-01-28T12:28:18;94049.16;;;4.66;94.57
11329;BME280;5719;42.714;23.732;2023-01-28T12:31:03;94046.41;;;4.69;93.39
11329;BME280;5719;42.714;23.732;2023-01-28T12:33:44;94036.72;;;4.74;92.57
11329;BME280;5719;42.714;23.732;2023-01-28T12:36:24;94049.81;;;4.70;92.05
11329;BME280;5719;42.714;23.732;2023-01-28T12:39:02;94052.56;;;4.51;94.13
11329;BME280;5719;42.714;23.732;2023-01-28T12:41:37;94050.59;;;4.25;95.21
11329;BME280;5719;42.714;23.732;2023-01-28T12:44:11;94038.94;;;4.19;96.35
11329;BME280;5719;42.714;23.732;2023-01-28T12:46:41;94050.06;;;4.65;96.62
11329;BME280;5719;42.714;23.732;2023-01-28T12:49:15;94049.63;;;4.73;95.70
11329;BME280;5719;42.714;23.732;2023-01-28T12:51:58;94048.78;;;4.27;95.49
11329;BME280;5719;42.714;23.732;2023-01-28T12:54:28;94067.25;;;4.16;97.38
11329;BME280;5719;42.714;23.732;2023-01-28T12:56:59;94065.53;;;4.17;96.58
11329;BME280;5719;42.714;23.732;2023-01-28T12:59:28;94067.03;;;3.89;98.34
11329;BME280;5719;42.714;23.732;2023-01-28T13:02:04;94052.50;;;3.41;100.00
11329;BME280;5719;42.714;23.732;2023-01-28T13:04:40;94071.44;;;3.37;100.00
11329;BME280;5719;42.714;23.732;2023-01-28T13:07:12;94059.63;;;3.52;100.00
11329;BME280;5719;42.714;23.732;2023-01-28T13:09:51;94074.16;;;3.34;100.00
11329;BME280;5719;42.714;23.732;2023-01-28T13:12:21;94073.00;;;3.40;100.00
11329;BME280;5719;42.714;23.732;2023-01-28T13:14:49;94076.91;;;3.47;100.00
11329;BME280;5719;42.714;23.732;2023-01-28T13:17:25;94076.44;;;3.56;100.00
11329;BME280;5719;42.714;23.732;2023-01-28T13:19:53;94081.09;;;3.48;100.00
11329;BME280;5719;42.714;23.732;2023-01-28T13:22:29;94065.38;;;3.56;100.00
11329;BME280;5719;42.714;23.732;2023-01-28T13:25:10;94090.31;;;3.68;100.00
11329;BME280;5719;42.714;23.732;2023-01-28T13:27:39;94084.16;;;3.22;100.00
11329;BME280;5719;42.714;23.732;2023-01-28T13:30:22;94086.25;;;3.14;100.00